createdAt,value
2023-03-23T15:58:45.560Z,13.14
2023-03-23T16:03:46.761Z,13.25
2023-03-23T16:08:54.453Z,13.57
2023-03-23T16:13:56.147Z,13.62
2023-03-23T16:18:57.320Z,13.57
2023-03-23T16:23:58.489Z,13.56
2023-03-23T16:29:09.593Z,13.50
2023-03-23T16:34:15.884Z,13.47
2023-03-23T16:39:18.961Z,13.52
2023-03-23T16:44:20.208Z,13.53
2023-03-23T16:49:21.453Z,13.42
2023-03-23T16:54:22.677Z,13.29
2023-03-23T16:59:23.856Z,13.15
2023-03-23T17:04:25.052Z,13.28
2023-03-23T17:09:26.257Z,13.34
2023-03-23T17:14:27.422Z,13.38
2023-03-23T17:19:28.560Z,13.37
2023-03-23T17:24:29.725Z,13.33
2023-03-23T17:29:31.524Z,13.27
2023-03-23T17:34:32.661Z,13.10
2023-03-23T17:39:42.712Z,12.93
2023-03-23T17:44:45.241Z,12.89
2023-03-23T17:49:46.460Z,12.65
2023-03-23T17:54:47.612Z,12.32
2023-03-23T17:59:48.797Z,12.27
2023-03-23T18:04:50.095Z,12.37
2023-03-23T18:09:52.374Z,12.49
2023-03-23T18:14:53.540Z,12.27
2023-03-23T18:19:55.338Z,12.11
2023-03-23T18:24:58.259Z,12.09
2023-03-23T18:29:59.436Z,11.91
2023-03-23T18:35:00.705Z,11.92
2023-03-23T18:40:02.199Z,11.98
2023-03-23T18:45:03.429Z,12.02
2023-03-23T18:50:04.604Z,12.03
2023-03-23T18:55:05.907Z,12.06
2023-03-23T19:00:07.176Z,12.09
2023-03-23T19:05:08.366Z,12.14
2023-03-23T19:10:09.601Z,12.19
2023-03-23T19:15:10.825Z,12.17
2023-03-23T19:20:16.108Z,12.12
2023-03-23T19:25:26.327Z,12.09
2023-03-23T19:30:27.569Z,12.17
2023-03-23T19:35:29.898Z,12.19
2023-03-23T19:40:40.246Z,12.23
2023-03-23T19:45:42.854Z,12.27
2023-03-23T19:50:46.726Z,12.27
2023-03-23T19:55:50.294Z,12.32
2023-03-23T20:00:51.759Z,12.32
2023-03-23T20:05:52.969Z,12.31
2023-03-23T20:10:54.972Z,12.29
2023-03-23T20:15:58.707Z,12.33
2023-03-23T20:21:01.897Z,12.40
2023-03-23T20:26:04.264Z,12.44
2023-03-23T20:31:16.772Z,12.59
2023-03-23T20:36:23.186Z,12.60
2023-03-23T20:41:24.390Z,12.61
2023-03-23T20:46:25.714Z,12.54
2023-03-23T20:51:27.677Z,12.46
2023-03-23T20:56:28.920Z,12.44
2023-03-23T21:01:33.001Z,12.45
2023-03-23T21:06:36.270Z,12.40
2023-03-23T21:11:37.482Z,12.40
2023-03-23T21:16:38.624Z,12.39
2023-03-23T21:21:55.436Z,12.41
2023-03-23T21:26:57.350Z,12.44
2023-03-23T21:32:07.636Z,12.35
2023-03-23T21:37:10.342Z,12.42
2023-03-23T21:42:13.556Z,12.41
2023-03-23T21:47:16.098Z,12.44
2023-03-23T21:52:17.281Z,12.42
2023-03-23T21:57:18.536Z,12.43
2023-03-23T22:02:19.685Z,12.43
2023-03-23T22:07:23.777Z,12.45
2023-03-23T22:12:24.922Z,12.32
2023-03-23T22:17:26.088Z,12.26
2023-03-23T22:22:27.262Z,12.13
2023-03-23T22:27:28.497Z,12.09
2023-03-23T22:32:29.708Z,11.98
2023-03-23T22:37:30.910Z,11.88
2023-03-23T22:42:32.090Z,11.74
2023-03-23T22:47:34.468Z,11.73
2023-03-23T22:52:36.788Z,11.68
2023-03-23T22:57:38.038Z,11.58
2023-03-23T23:02:39.286Z,11.46
2023-03-23T23:07:40.532Z,11.41
2023-03-23T23:12:42.492Z,11.33
2023-03-23T23:17:43.951Z,11.27
2023-03-23T23:22:45.326Z,11.22
2023-03-23T23:27:46.552Z,11.19
2023-03-23T23:32:47.750Z,11.17
2023-03-23T23:37:48.973Z,11.19
2023-03-23T23:42:50.203Z,11.18
2023-03-23T23:47:51.438Z,11.14
2023-03-23T23:52:52.716Z,11.15
2023-03-23T23:57:53.883Z,11.16
